sensor_id;sensor_type;location;lat;lon;timestamp;temperature;humidity
51950;DHT22;37974;53.218;6.640;2022-09-12T00:00:12;13.40;99.90
51950;DHT22;37974;53.218;6.640;2022-09-12T00:02:40;13.40;99.90
51950;DHT22;37974;53.218;6.640;2022-09-12T00:05:06;13.40;99.90
51950;DHT22;37974;53.218;6.640;2022-09-12T00:07:32;13.40;99.90
51950;DHT22;37974;53.218;6.640;2022-09-12T00:09:58;13.40;99.90
51950;DHT22;37974;53.218;6.640;2022-09-12T00:12:24;13.30;99.90
51950;DHT22;37974;53.218;6.640;2022-09-12T00:14:50;13.30;99.90
51950;DHT22;37974;53.218;6.640;2022-09-12T00:17:15;13.30;99.90
51950;DHT22;37974;53.218;6.640;2022-09-12T00:19:41;13.20;99.90
51950;DHT22;37974;53.218;6.640;2022-09-12T00:22:07;13.20;99.90
51950;DHT22;37974;53.218;6.640;2022-09-12T00:24:32;13.20;99.90
51950;DHT22;37974;53.218;6.640;2022-09-12T00:26:58;13.20;99.90
51950;DHT22;37974;53.218;6.640;2022-09-12T00:29:24;13.10;99.90
51950;DHT22;37974;53.218;6.640;2022-09-12T00:31:50;13.10;99.90
51950;DHT22;37974;53.218;6.640;2022-09-12T00:34:15;13.00;99.90
51950;DHT22;37974;53.218;6.640;2022-09-12T00:36:41;13.00;99.90
51950;DHT22;37974;53.218;6.640;2022-09-12T00:39:07;13.00;99.90
51950;DHT22;37974;53.218;6.640;2022-09-12T00:41:36;13.00;99.90
51950;DHT22;37974;53.218;6.640;2022-09-12T00:44:38;13.00;99.90
51950;DHT22;37974;53.218;6.640;2022-09-12T00:46:50;13.00;99.90
51950;DHT22;37974;53.218;6.640;2022-09-12T00:49:32;12.90;99.90
51950;DHT22;37974;53.218;6.640;2022-09-12T00:52:07;12.90;99.90
51950;DHT22;37974;53.218;6.640;2022-09-12T00:54:36;12.90;99.90
51950;DHT22;37974;53.218;6.640;2022-09-12T00:57:05;12.90;99.90
51950;DHT22;37974;53.218;6.640;2022-09-12T00:59:39;12.90;99.90
51950;DHT22;37974;53.218;6.640;2022-09-12T01:02:06;12.80;99.90
51950;DHT22;37974;53.218;6.640;2022-09-12T01:04:34;12.80;99.90
51950;DHT22;37974;53.218;6.640;2022-09-12T01:07:03;12.70;99.90
51950;DHT22;37974;53.218;6.640;2022-09-12T01:09:29;12.70;99.90
51950;DHT22;37974;53.218;6.640;2022-09-12T01:11:56;12.60;99.90
51950;DHT22;37974;53.218;6.640;2022-09-12T01:14:22;12.60;99.90
51950;DHT22;37974;53.218;6.640;2022-09-12T01:16:49;12.60;99.90
51950;DHT22;37974;53.218;6.640;2022-09-12T01:25:27;12.40;99.90
51950;DHT22;37974;53.218;6.640;2022-09-12T01:30:46;12.40;99.90
51950;DHT22;37974;53.218;6.640;2022-09-12T01:35:57;12.40;99.90
51950;DHT22;37974;53.218;6.640;2022-09-12T01:38:38;12.40;99.90
51950;DHT22;37974;53.218;6.640;2022-09-12T01:43:48;12.40;99.90
51950;DHT22;37974;53.218;6.640;2022-09-12T01:46:24;12.40;99.90
51950;DHT22;37974;53.218;6.640;2022-09-12T01:49:00;12.40;99.90
51950;DHT22;37974;53.218;6.640;2022-09-12T01:51:32;12.40;99.90
51950;DHT22;37974;53.218;6.640;2022-09-12T01:54:07;12.40;99.90
51950;DHT22;37974;53.218;6.640;2022-09-12T01:56:37;12.40;99.90
51950;DHT22;37974;53.218;6.640;2022-09-12T01:59:12;12.30;99.90
51950;DHT22;37974;53.218;6.640;2022-09-12T02:01:45;12.40;99.90
51950;DHT22;37974;53.218;6.640;2022-09-12T02:04:17;12.30;99.90
51950;DHT22;37974;53.218;6.640;2022-09-12T02:11:49;12.30;99.90
51950;DHT22;37974;53.218;6.640;2022-09-12T02:14:25;12.30;99.90
51950;DHT22;37974;53.218;6.640;2022-09-12T02:16:56;12.30;99.90
51950;DHT22;37974;53.218;6.640;2022-09-12T02:19:27;12.30;99.90
51950;DHT22;37974;53.218;6.640;2022-09-12T02:21:58;12.30;99.90
51950;DHT22;37974;53.218;6.640;2022-09-12T02:24:29;12.30;99.90
51950;DHT22;37974;53.218;6.640;2022-09-12T02:27:00;12.20;99.90
51950;DHT22;37974;53.218;6.640;2022-09-12T02:29:28;12.30;99.90
51950;DHT22;37974;53.218;6.640;2022-09-12T02:31:58;12.20;99.90
51950;DHT22;37974;53.218;6.640;2022-09-12T02:39:35;12.20;99.90
51950;DHT22;37974;53.218;6.640;2022-09-12T02:42:02;12.10;99.90
51950;DHT22;37974;53.218;6.640;2022-09-12T02:44:29;12.20;99.90
51950;DHT22;37974;53.218;6.640;2022-09-12T02:47:03;12.10;99.90
51950;DHT22;37974;53.218;6.640;2022-09-12T02:49:29;12.10;99.90
51950;DHT22;37974;53.218;6.640;2022-09-12T02:51:55;12.10;99.90
51950;DHT22;37974;53.218;6.640;2022-09-12T02:54:20;12.10;99.90
51950;DHT22;37974;53.218;6.640;2022-09-12T02:56:46;12.10;99.90
51950;DHT22;37974;53.218;6.640;2022-09-12T02:59:16;12.10;99.90
51950;DHT22;37974;53.218;6.640;2022-09-12T03:01:48;12.00;99.90
51950;DHT22;37974;53.218;6.640;2022-09-12T03:07:25;12.00;99.90
51950;DHT22;37974;53.218;6.640;2022-09-12T03:12:44;11.90;99.90
51950;DHT22;37974;53.218;6.640;2022-09-12T03:15:19;12.00;99.90
51950;DHT22;37974;53.218;6.640;2022-09-12T03:17:57;12.00;99.90
51950;DHT22;37974;53.218;6.640;2022-09-12T03:20:36;11.90;99.90
51950;DHT22;37974;53.218;6.640;2022-09-12T03:23:25;11.90;99.90
51950;DHT22;37974;53.218;6.640;2022-09-12T03:26:01;11.90;99.90
51950;DHT22;37974;53.218;6.640;2022-09-12T03:28:28;11.80;99.90
51950;DHT22;37974;53.218;6.640;2022-09-12T03:30:55;11.80;99.90
51950;DHT22;37974;53.218;6.640;2022-09-12T03:33:23;11.80;99.90
51950;DHT22;37974;53.218;6.640;2022-09-12T03:35:50;11.70;99.90
51950;DHT22;37974;53.218;6.640;2022-09-12T03:38:16;11.70;99.90
51950;DHT22;37974;53.218;6.640;2022-09-12T03:40:42;11.70;99.90
51950;DHT22;37974;53.218;6.640;2022-09-12T03:43:09;11.70;99.90
51950;DHT22;37974;53.218;6.640;2022-09-12T03:45:36;11.70;99.90
51950;DHT22;37974;53.218;6.640;2022-09-12T03:48:04;11.70;99.90
51950;DHT22;37974;53.218;6.640;2022-09-12T03:50:30;11.70;99.90
51950;DHT22;37974;53.218;6.640;2022-09-12T03:52:58;11.70;99.90
51950;DHT22;37974;53.218;6.640;2022-09-12T03:55:24;11.70;99.90
51950;DHT22;37974;53.218;6.640;2022-09-12T03:57:52;11.70;99.90
51950;DHT22;37974;53.218;6.640;2022-09-12T04:00:18;11.70;99.90
51950;DHT22;37974;53.218;6.640;2022-09-12T04:02:44;11.70;99.90
51950;DHT22;37974;53.218;6.640;2022-09-12T04:05:10;11.60;99.90
51950;DHT22;37974;53.218;6.640;2022-09-12T04:07:35;11.60;99.90
51950;DHT22;37974;53.218;6.640;2022-09-12T04:10:01;11.70;99.90
51950;DHT22;37974;53.218;6.640;2022-09-12T04:12:28;11.60;99.90
51950;DHT22;37974;53.218;6.640;2022-09-12T04:14:54;11.70;99.90
51950;DHT22;37974;53.218;6.640;2022-09-12T04:17:19;11.70;99.90
51950;DHT22;37974;53.218;6.640;2022-09-12T04:19:45;11.70;99.90
51950;DHT22;37974;53.218;6.640;2022-09-12T04:22:11;11.70;99.90
51950;DHT22;37974;53.218;6.640;2022-09-12T04:24:36;11.60;99.90
51950;DHT22;37974;53.218;6.640;2022-09-12T04:27:02;11.60;99.90
51950;DHT22;37974;53.218;6.640;2022-09-12T04:29:28;11.70;99.90
51950;DHT22;37974;53.218;6.640;2022-09-12T04:31:55;11.70;99.90
51950;DHT22;37974;53.218;6.640;2022-09-12T04:34:21;11.70;99.90
51950;DHT22;37974;53.218;6.640;2022-09-12T04:36:47;11.70;99.90
51950;DHT22;37974;53.218;6.640;2022-09-12T04:39:13;11.70;99.90
51950;DHT22;37974;53.218;6.640;2022-09-12T04:41:39;11.70;99.90
51950;DHT22;37974;53.218;6.640;2022-09-12T04:44:10;11.70;99.90
51950;DHT22;37974;53.218;6.640;2022-09-12T04:46:38;11.70;99.90
51950;DHT22;37974;53.218;6.640;2022-09-12T04:49:05;11.70;99.90
51950;DHT22;37974;53.218;6.640;2022-09-12T04:51:32;11.80;99.90
51950;DHT22;37974;53.218;6.640;2022-09-12T04:54:01;11.90;99.90
51950;DHT22;37974;53.218;6.640;2022-09-12T04:56:28;11.90;99.90
51950;DHT22;37974;53.218;6.640;2022-09-12T04:58:57;12.00;99.90
51950;DHT22;37974;53.218;6.640;2022-09-12T05:01:23;12.00;99.90
51950;DHT22;37974;53.218;6.640;2022-09-12T05:03:50;12.10;99.90
51950;DHT22;37974;53.218;6.640;2022-09-12T05:06:20;12.10;99.90
51950;DHT22;37974;53.218;6.640;2022-09-12T05:08:46;12.20;99.90
51950;DHT22;37974;53.218;6.640;2022-09-12T05:11:14;12.20;99.90
51950;DHT22;37974;53.218;6.640;2022-09-12T05:13:40;12.30;99.90
51950;DHT22;37974;53.218;6.640;2022-09-12T05:16:08;12.30;99.90
51950;DHT22;37974;53.218;6.640;2022-09-12T05:18:35;12.40;99.90
51950;DHT22;37974;53.218;6.640;2022-09-12T05:21:03;12.50;99.90
51950;DHT22;37974;53.218;6.640;2022-09-12T05:23:30;12.50;99.90
51950;DHT22;37974;53.218;6.640;2022-09-12T05:25:57;12.70;99.90
51950;DHT22;37974;53.218;6.640;2022-09-12T05:28:27;12.70;99.90
51950;DHT22;37974;53.218;6.640;2022-09-12T05:31:04;12.80;99.90
51950;DHT22;37974;53.218;6.640;2022-09-12T05:33:33;12.90;99.90
51950;DHT22;37974;53.218;6.640;2022-09-12T05:36:00;13.00;99.90
51950;DHT22;37974;53.218;6.640;2022-09-12T05:38:26;13.00;99.90
51950;DHT22;37974;53.218;6.640;2022-09-12T05:41:05;13.10;99.90
51950;DHT22;37974;53.218;6.640;2022-09-12T05:43:33;13.10;99.90
51950;DHT22;37974;53.218;6.640;2022-09-12T05:46:00;13.20;99.90
51950;DHT22;37974;53.218;6.640;2022-09-12T05:48:26;13.20;99.90
51950;DHT22;37974;53.218;6.640;2022-09-12T05:50:59;13.30;99.90
51950;DHT22;37974;53.218;6.640;2022-09-12T05:53:27;13.30;99.90
51950;DHT22;37974;53.218;6.640;2022-09-12T05:56:03;13.40;99.90
51950;DHT22;37974;53.218;6.640;2022-09-12T05:58:29;13.40;99.90
51950;DHT22;37974;53.218;6.640;2022-09-12T06:00:55;13.50;99.90
51950;DHT22;37974;53.218;6.640;2022-09-12T06:03:21;13.50;99.90
51950;DHT22;37974;53.218;6.640;2022-09-12T06:05:47;13.50;99.90
51950;DHT22;37974;53.218;6.640;2022-09-12T06:08:13;13.60;99.90
51950;DHT22;37974;53.218;6.640;2022-09-12T06:10:38;13.60;99.90
51950;DHT22;37974;53.218;6.640;2022-09-12T06:13:04;13.60;99.90
51950;DHT22;37974;53.218;6.640;2022-09-12T06:15:31;13.70;99.90
51950;DHT22;37974;53.218;6.640;2022-09-12T06:17:57;13.70;99.90
51950;DHT22;37974;53.218;6.640;2022-09-12T06:20:22;13.80;99.90
51950;DHT22;37974;53.218;6.640;2022-09-12T06:22:52;13.80;99.90
51950;DHT22;37974;53.218;6.640;2022-09-12T06:25:18;13.90;99.90
51950;DHT22;37974;53.218;6.640;2022-09-12T06:27:44;14.00;99.90
51950;DHT22;37974;53.218;6.640;2022-09-12T06:30:12;14.10;99.90
51950;DHT22;37974;53.218;6.640;2022-09-12T06:32:38;14.10;99.90
51950;DHT22;37974;53.218;6.640;2022-09-12T06:35:04;14.20;99.90
51950;DHT22;37974;53.218;6.640;2022-09-12T06:37:30;14.20;99.90
51950;DHT22;37974;53.218;6.640;2022-09-12T06:39:56;14.30;99.90
51950;DHT22;37974;53.218;6.640;2022-09-12T06:42:22;14.30;99.90
51950;DHT22;37974;53.218;6.640;2022-09-12T06:44:48;14.40;99.90
51950;DHT22;37974;53.218;6.640;2022-09-12T06:47:15;14.50;99.90
51950;DHT22;37974;53.218;6.640;2022-09-12T06:49:40;14.50;99.90
51950;DHT22;37974;53.218;6.640;2022-09-12T06:52:06;14.50;99.90
51950;DHT22;37974;53.218;6.640;2022-09-12T06:54:32;14.60;99.90
51950;DHT22;37974;53.218;6.640;2022-09-12T06:56:57;14.60;99.90
51950;DHT22;37974;53.218;6.640;2022-09-12T06:59:23;14.60;99.90
51950;DHT22;37974;53.218;6.640;2022-09-12T07:02:34;14.60;99.90
51950;DHT22;37974;53.218;6.640;2022-09-12T07:04:35;14.70;99.90
51950;DHT22;37974;53.218;6.640;2022-09-12T07:07:01;14.70;99.90
51950;DHT22;37974;53.218;6.640;2022-09-12T07:09:27;14.70;99.90
51950;DHT22;37974;53.218;6.640;2022-09-12T07:11:55;14.80;99.90
51950;DHT22;37974;53.218;6.640;2022-09-12T07:14:20;14.90;99.90
51950;DHT22;37974;53.218;6.640;2022-09-12T07:16:46;14.90;99.90
51950;DHT22;37974;53.218;6.640;2022-09-12T07:19:12;14.90;99.90
51950;DHT22;37974;53.218;6.640;2022-09-12T07:21:38;15.00;99.90
51950;DHT22;37974;53.218;6.640;2022-09-12T07:24:05;15.00;99.90
51950;DHT22;37974;53.218;6.640;2022-09-12T07:26:33;15.10;99.90
51950;DHT22;37974;53.218;6.640;2022-09-12T07:28:59;15.20;99.90
51950;DHT22;37974;53.218;6.640;2022-09-12T07:31:26;15.40;99.90
51950;DHT22;37974;53.218;6.640;2022-09-12T07:33:52;15.40;99.90
51950;DHT22;37974;53.218;6.640;2022-09-12T07:36:20;15.50;99.90
51950;DHT22;37974;53.218;6.640;2022-09-12T07:38:47;15.60;99.90
51950;DHT22;37974;53.218;6.640;2022-09-12T07:41:17;15.70;99.90
51950;DHT22;37974;53.218;6.640;2022-09-12T07:43:43;15.80;99.90
51950;DHT22;37974;53.218;6.640;2022-09-12T07:46:09;15.90;99.90
51950;DHT22;37974;53.218;6.640;2022-09-12T07:48:36;15.90;99.90
51950;DHT22;37974;53.218;6.640;2022-09-12T07:51:04;16.00;99.90
51950;DHT22;37974;53.218;6.640;2022-09-12T07:53:34;16.00;99.90
51950;DHT22;37974;53.218;6.640;2022-09-12T07:56:00;16.10;99.90
51950;DHT22;37974;53.218;6.640;2022-09-12T07:58:28;16.10;99.90
51950;DHT22;37974;53.218;6.640;2022-09-12T08:01:02;16.10;99.90
51950;DHT22;37974;53.218;6.640;2022-09-12T08:03:28;16.20;99.90
51950;DHT22;37974;53.218;6.640;2022-09-12T08:05:54;16.20;99.90
51950;DHT22;37974;53.218;6.640;2022-09-12T08:08:19;16.20;99.90
51950;DHT22;37974;53.218;6.640;2022-09-12T08:10:45;16.30;99.90
51950;DHT22;37974;53.218;6.640;2022-09-12T08:13:11;16.40;99.90
51950;DHT22;37974;53.218;6.640;2022-09-12T08:15:36;16.40;99.90
51950;DHT22;37974;53.218;6.640;2022-09-12T08:18:02;16.50;99.90
51950;DHT22;37974;53.218;6.640;2022-09-12T08:20:28;16.60;99.90
51950;DHT22;37974;53.218;6.640;2022-09-12T08:22:54;16.60;99.90
51950;DHT22;37974;53.218;6.640;2022-09-12T08:25:20;16.70;99.90
51950;DHT22;37974;53.218;6.640;2022-09-12T08:27:45;16.70;99.90
51950;DHT22;37974;53.218;6.640;2022-09-12T08:30:12;16.70;99.90
51950;DHT22;37974;53.218;6.640;2022-09-12T08:32:37;16.80;99.90
51950;DHT22;37974;53.218;6.640;2022-09-12T08:35:03;16.90;99.90
51950;DHT22;37974;53.218;6.640;2022-09-12T08:37:30;16.90;99.90
51950;DHT22;37974;53.218;6.640;2022-09-12T08:39:56;17.00;99.90
51950;DHT22;37974;53.218;6.640;2022-09-12T08:42:45;17.00;99.90
51950;DHT22;37974;53.218;6.640;2022-09-12T08:45:18;17.20;99.90
51950;DHT22;37974;53.218;6.640;2022-09-12T08:47:48;17.30;99.90
51950;DHT22;37974;53.218;6.640;2022-09-12T08:50:17;17.40;99.90
51950;DHT22;37974;53.218;6.640;2022-09-12T08:55:26;17.60;99.90
51950;DHT22;37974;53.218;6.640;2022-09-12T08:57:56;17.90;99.90
51950;DHT22;37974;53.218;6.640;2022-09-12T09:00:22;17.80;99.90
51950;DHT22;37974;53.218;6.640;2022-09-12T09:02:57;17.90;99.90
51950;DHT22;37974;53.218;6.640;2022-09-12T09:18:52;18.40;99.90
51950;DHT22;37974;53.218;6.640;2022-09-12T09:21:28;18.50;99.90
51950;DHT22;37974;53.218;6.640;2022-09-12T09:24:01;18.50;99.90
51950;DHT22;37974;53.218;6.640;2022-09-12T09:29:16;18.50;99.90
51950;DHT22;37974;53.218;6.640;2022-09-12T09:31:47;18.50;99.90
51950;DHT22;37974;53.218;6.640;2022-09-12T09:34:21;18.60;99.90
51950;DHT22;37974;53.218;6.640;2022-09-12T09:37:01;18.60;99.90
51950;DHT22;37974;53.218;6.640;2022-09-12T09:42:29;18.70;99.90
51950;DHT22;37974;53.218;6.640;2022-09-12T09:44:59;18.70;99.90
51950;DHT22;37974;53.218;6.640;2022-09-12T09:47:26;18.80;99.90
51950;DHT22;37974;53.218;6.640;2022-09-12T09:49:52;18.90;99.90
51950;DHT22;37974;53.218;6.640;2022-09-12T09:52:25;19.00;99.90
51950;DHT22;37974;53.218;6.640;2022-09-12T09:54:57;19.10;99.90
51950;DHT22;37974;53.218;6.640;2022-09-12T10:00:20;19.50;99.90
51950;DHT22;37974;53.218;6.640;2022-09-12T10:05:44;19.70;99.90
51950;DHT22;37974;53.218;6.640;2022-09-12T10:08:21;19.70;99.90
51950;DHT22;37974;53.218;6.640;2022-09-12T10:10:54;19.80;99.90
51950;DHT22;37974;53.218;6.640;2022-09-12T10:13:36;19.80;99.90
51950;DHT22;37974;53.218;6.640;2022-09-12T10:16:06;20.00;99.90
51950;DHT22;37974;53.218;6.640;2022-09-12T10:18:41;20.10;99.90
51950;DHT22;37974;53.218;6.640;2022-09-12T10:21:16;20.20;99.90
51950;DHT22;37974;53.218;6.640;2022-09-12T10:23:45;20.40;99.90
51950;DHT22;37974;53.218;6.640;2022-09-12T10:26:14;20.50;99.90
51950;DHT22;37974;53.218;6.640;2022-09-12T10:28:44;20.60;99.90
51950;DHT22;37974;53.218;6.640;2022-09-12T10:31:35;20.80;99.90
51950;DHT22;37974;53.218;6.640;2022-09-12T10:34:19;20.90;99.90
51950;DHT22;37974;53.218;6.640;2022-09-12T10:36:46;20.90;99.90
51950;DHT22;37974;53.218;6.640;2022-09-12T10:39:17;20.90;99.90
51950;DHT22;37974;53.218;6.640;2022-09-12T10:41:44;20.80;99.90
51950;DHT22;37974;53.218;6.640;2022-09-12T10:44:17;20.90;99.90
51950;DHT22;37974;53.218;6.640;2022-09-12T10:46:43;20.90;99.90
51950;DHT22;37974;53.218;6.640;2022-09-12T10:51:45;21.20;99.90
51950;DHT22;37974;53.218;6.640;2022-09-12T10:54:11;21.40;99.90
51950;DHT22;37974;53.218;6.640;2022-09-12T11:01:45;21.50;99.90
51950;DHT22;37974;53.218;6.640;2022-09-12T11:07:19;21.60;99.90
51950;DHT22;37974;53.218;6.640;2022-09-12T11:10:00;21.60;99.90
51950;DHT22;37974;53.218;6.640;2022-09-12T11:18:03;21.60;99.90
51950;DHT22;37974;53.218;6.640;2022-09-12T11:28:34;21.70;99.90
51950;DHT22;37974;53.218;6.640;2022-09-12T11:33:45;21.80;99.90
51950;DHT22;37974;53.218;6.640;2022-09-12T11:39:02;21.60;99.90
51950;DHT22;37974;53.218;6.640;2022-09-12T11:41:37;21.90;99.90
51950;DHT22;37974;53.218;6.640;2022-09-12T11:44:20;21.90;99.90
51950;DHT22;37974;53.218;6.640;2022-09-12T11:46:48;21.90;99.90
51950;DHT22;37974;53.218;6.640;2022-09-12T11:49:28;21.90;99.90
51950;DHT22;37974;53.218;6.640;2022-09-12T11:52:05;21.90;99.90
51950;DHT22;37974;53.218;6.640;2022-09-12T11:54:49;21.80;99.90
51950;DHT22;37974;53.218;6.640;2022-09-12T11:57:37;21.80;99.90
51950;DHT22;37974;53.218;6.640;2022-09-12T12:00:15;21.90;99.90
51950;DHT22;37974;53.218;6.640;2022-09-12T12:03:19;22.00;99.90
51950;DHT22;37974;53.218;6.640;2022-09-12T12:08:23;22.20;99.90
51950;DHT22;37974;53.218;6.640;2022-09-12T12:10:55;22.20;99.90
51950;DHT22;37974;53.218;6.640;2022-09-12T12:13:29;22.30;99.90
51950;DHT22;37974;53.218;6.640;2022-09-12T12:16:00;22.30;99.90
51950;DHT22;37974;53.218;6.640;2022-09-12T12:18:29;22.40;99.90
51950;DHT22;37974;53.218;6.640;2022-09-12T12:21:19;22.40;99.90
51950;DHT22;37974;53.218;6.640;2022-09-12T12:29:07;22.30;99.90
51950;DHT22;37974;53.218;6.640;2022-09-12T12:34:35;22.50;99.90
51950;DHT22;37974;53.218;6.640;2022-09-12T12:45:01;22.50;99.90
51950;DHT22;37974;53.218;6.640;2022-09-12T12:47:31;22.50;99.90
51950;DHT22;37974;53.218;6.640;2022-09-12T12:50:02;22.50;99.90
51950;DHT22;37974;53.218;6.640;2022-09-12T12:52:31;22.50;99.90
51950;DHT22;37974;53.218;6.640;2022-09-12T12:54:59;22.50;99.90
51950;DHT22;37974;53.218;6.640;2022-09-12T12:59:54;22.60;99.90
51950;DHT22;37974;53.218;6.640;2022-09-12T13:02:34;22.60;99.90
51950;DHT22;37974;53.218;6.640;2022-09-12T13:05:05;22.70;99.90
51950;DHT22;37974;53.218;6.640;2022-09-12T13:07:35;22.80;99.90
51950;DHT22;37974;53.218;6.640;2022-09-12T13:10:03;22.90;99.90
51950;DHT22;37974;53.218;6.640;2022-09-12T13:12:33;23.00;99.90
51950;DHT22;37974;53.218;6.640;2022-09-12T13:15:01;23.20;99.90
51950;DHT22;37974;53.218;6.640;2022-09-12T13:17:29;23.30;99.90
51950;DHT22;37974;53.218;6.640;2022-09-12T13:20:13;23.30;99.90
51950;DHT22;37974;53.218;6.640;2022-09-12T13:22:48;23.30;99.90
51950;DHT22;37974;53.218;6.640;2022-09-12T13:25:21;23.30;99.90
51950;DHT22;37974;53.218;6.640;2022-09-12T13:30:35;23.30;99.90
51950;DHT22;37974;53.218;6.640;2022-09-12T13:36:19;23.30;99.90
51950;DHT22;37974;53.218;6.640;2022-09-12T13:39:19;23.30;99.90
51950;DHT22;37974;53.218;6.640;2022-09-12T13:45:38;23.30;99.90
51950;DHT22;37974;53.218;6.640;2022-09-12T13:48:05;23.20;99.90
51950;DHT22;37974;53.218;6.640;2022-09-12T13:50:40;23.20;99.90
51950;DHT22;37974;53.218;6.640;2022-09-12T13:53:13;23.20;99.90
51950;DHT22;37974;53.218;6.640;2022-09-12T13:55:42;23.20;99.90
51950;DHT22;37974;53.218;6.640;2022-09-12T13:58:20;23.20;99.90
51950;DHT22;37974;53.218;6.640;2022-09-12T14:01:04;23.20;99.90
51950;DHT22;37974;53.218;6.640;2022-09-12T14:03:33;23.10;99.90
51950;DHT22;37974;53.218;6.640;2022-09-12T14:06:22;23.20;99.90
51950;DHT22;37974;53.218;6.640;2022-09-12T14:08:50;23.20;99.90
51950;DHT22;37974;53.218;6.640;2022-09-12T14:11:24;23.10;99.90
51950;DHT22;37974;53.218;6.640;2022-09-12T14:13:51;23.10;99.90
51950;DHT22;37974;53.218;6.640;2022-09-12T14:16:18;23.00;99.90
51950;DHT22;37974;53.218;6.640;2022-09-12T14:18:46;22.90;99.90
51950;DHT22;37974;53.218;6.640;2022-09-12T14:21:30;22.90;99.90
51950;DHT22;37974;53.218;6.640;2022-09-12T14:23:59;22.80;99.90
51950;DHT22;37974;53.218;6.640;2022-09-12T14:26:27;22.80;99.90
51950;DHT22;37974;53.218;6.640;2022-09-12T14:28:57;22.80;99.90
51950;DHT22;37974;53.218;6.640;2022-09-12T14:31:29;22.90;99.90
51950;DHT22;37974;53.218;6.640;2022-09-12T14:34:08;22.90;99.90
51950;DHT22;37974;53.218;6.640;2022-09-12T14:36:40;22.90;99.90
51950;DHT22;37974;53.218;6.640;2022-09-12T14:39:31;22.90;99.90
51950;DHT22;37974;53.218;6.640;2022-09-12T14:42:12;22.90;99.90
51950;DHT22;37974;53.218;6.640;2022-09-12T14:44:39;22.90;99.90
51950;DHT22;37974;53.218;6.640;2022-09-12T14:47:12;22.90;99.90
51950;DHT22;37974;53.218;6.640;2022-09-12T14:49:40;22.90;99.90
51950;DHT22;37974;53.218;6.640;2022-09-12T14:52:20;22.90;99.90
51950;DHT22;37974;53.218;6.640;2022-09-12T14:54:55;22.80;99.90
51950;DHT22;37974;53.218;6.640;2022-09-12T14:57:31;22.80;99.90
51950;DHT22;37974;53.218;6.640;2022-09-12T15:02:36;22.80;99.90
51950;DHT22;37974;53.218;6.640;2022-09-12T15:07:40;22.90;99.90
51950;DHT22;37974;53.218;6.640;2022-09-12T15:10:14;22.90;99.90
51950;DHT22;37974;53.218;6.640;2022-09-12T15:12:41;22.90;99.90
51950;DHT22;37974;53.218;6.640;2022-09-12T15:15:15;22.90;99.90
51950;DHT22;37974;53.218;6.640;2022-09-12T15:17:42;23.00;99.90
51950;DHT22;37974;53.218;6.640;2022-09-12T15:20:08;23.10;99.90
51950;DHT22;37974;53.218;6.640;2022-09-12T15:22:35;23.20;99.90
51950;DHT22;37974;53.218;6.640;2022-09-12T15:25:03;23.30;99.90
51950;DHT22;37974;53.218;6.640;2022-09-12T15:27:29;23.30;99.90
51950;DHT22;37974;53.218;6.640;2022-09-12T15:29:55;23.20;99.90
51950;DHT22;37974;53.218;6.640;2022-09-12T15:32:23;23.10;99.90
51950;DHT22;37974;53.218;6.640;2022-09-12T15:34:51;23.00;99.90
51950;DHT22;37974;53.218;6.640;2022-09-12T15:37:18;22.80;99.90
51950;DHT22;37974;53.218;6.640;2022-09-12T15:39:45;22.90;99.90
51950;DHT22;37974;53.218;6.640;2022-09-12T15:42:12;22.80;99.90
51950;DHT22;37974;53.218;6.640;2022-09-12T15:44:39;22.80;99.90
51950;DHT22;37974;53.218;6.640;2022-09-12T15:47:05;22.80;99.90
51950;DHT22;37974;53.218;6.640;2022-09-12T15:49:31;22.90;99.90
51950;DHT22;37974;53.218;6.640;2022-09-12T15:51:57;23.00;99.90
51950;DHT22;37974;53.218;6.640;2022-09-12T15:54:23;22.90;99.90
51950;DHT22;37974;53.218;6.640;2022-09-12T15:56:49;23.00;99.90
51950;DHT22;37974;53.218;6.640;2022-09-12T15:59:15;23.00;99.90
51950;DHT22;37974;53.218;6.640;2022-09-12T16:01:40;22.90;99.90
51950;DHT22;37974;53.218;6.640;2022-09-12T16:04:20;22.90;99.90
51950;DHT22;37974;53.218;6.640;2022-09-12T16:06:46;22.90;99.90
51950;DHT22;37974;53.218;6.640;2022-09-12T16:09:12;22.80;99.90
51950;DHT22;37974;53.218;6.640;2022-09-12T16:11:38;22.70;99.90
51950;DHT22;37974;53.218;6.640;2022-09-12T16:14:04;22.70;99.90
51950;DHT22;37974;53.218;6.640;2022-09-12T16:16:30;22.70;99.90
51950;DHT22;37974;53.218;6.640;2022-09-12T16:18:56;22.70;99.90
51950;DHT22;37974;53.218;6.640;2022-09-12T16:21:22;22.70;99.90
51950;DHT22;37974;53.218;6.640;2022-09-12T16:23:49;22.60;99.90
51950;DHT22;37974;53.218;6.640;2022-09-12T16:26:15;22.60;99.90
51950;DHT22;37974;53.218;6.640;2022-09-12T16:28:41;22.50;99.90
51950;DHT22;37974;53.218;6.640;2022-09-12T16:31:10;22.40;99.90
51950;DHT22;37974;53.218;6.640;2022-09-12T16:33:37;22.30;99.90
51950;DHT22;37974;53.218;6.640;2022-09-12T16:36:05;22.30;99.90
51950;DHT22;37974;53.218;6.640;2022-09-12T16:38:31;22.20;99.90
51950;DHT22;37974;53.218;6.640;2022-09-12T16:41:02;22.10;99.90
51950;DHT22;37974;53.218;6.640;2022-09-12T16:43:29;22.00;99.90
51950;DHT22;37974;53.218;6.640;2022-09-12T16:46:01;21.90;99.90
51950;DHT22;37974;53.218;6.640;2022-09-12T16:48:28;21.90;99.90
51950;DHT22;37974;53.218;6.640;2022-09-12T16:50:56;21.80;99.90
51950;DHT22;37974;53.218;6.640;2022-09-12T16:53:23;21.80;99.90
51950;DHT22;37974;53.218;6.640;2022-09-12T16:55:49;21.80;99.90
51950;DHT22;37974;53.218;6.640;2022-09-12T16:58:15;21.70;99.90
51950;DHT22;37974;53.218;6.640;2022-09-12T17:00:41;21.70;99.90
51950;DHT22;37974;53.218;6.640;2022-09-12T17:03:08;21.70;99.90
51950;DHT22;37974;53.218;6.640;2022-09-12T17:05:34;21.70;99.90
51950;DHT22;37974;53.218;6.640;2022-09-12T17:08:04;21.70;99.90
51950;DHT22;37974;53.218;6.640;2022-09-12T17:10:30;21.70;99.90
51950;DHT22;37974;53.218;6.640;2022-09-12T17:12:57;21.70;99.90
51950;DHT22;37974;53.218;6.640;2022-09-12T17:15:28;21.60;99.90
51950;DHT22;37974;53.218;6.640;2022-09-12T17:17:57;21.50;99.90
51950;DHT22;37974;53.218;6.640;2022-09-12T17:20:23;21.50;99.90
51950;DHT22;37974;53.218;6.640;2022-09-12T17:22:49;21.40;99.90
51950;DHT22;37974;53.218;6.640;2022-09-12T17:25:14;21.30;99.90
51950;DHT22;37974;53.218;6.640;2022-09-12T17:27:40;21.20;99.90
51950;DHT22;37974;53.218;6.640;2022-09-12T17:30:06;21.10;99.90
51950;DHT22;37974;53.218;6.640;2022-09-12T17:32:32;21.00;99.90
51950;DHT22;37974;53.218;6.640;2022-09-12T17:34:58;20.90;99.90
51950;DHT22;37974;53.218;6.640;2022-09-12T17:37:24;20.80;99.90
51950;DHT22;37974;53.218;6.640;2022-09-12T17:39:50;20.70;99.90
51950;DHT22;37974;53.218;6.640;2022-09-12T17:42:15;20.60;99.90
51950;DHT22;37974;53.218;6.640;2022-09-12T17:44:41;20.50;99.90
51950;DHT22;37974;53.218;6.640;2022-09-12T17:47:07;20.40;99.90